PWSweather.com
Personal Weather Stations
Station Observations
PENICUIKWS
PenicuikGB

PenicuikGB

Lat: 55.830932, Lon: -3.224533000000065

Elevation: 166

Station Type: Fine Offset

http://weather.penicuik.org

High Low Average
Temperature 39.9°F4.4°C 28.2°F-2.1°C 35.3°F1.8°C
Dew Point 32.1°F0.1°C 22.3°F-5.4°C 28.6°F-1.9°C
Winds 11.8 mph 19.0 kmh Calm Calm 4.0 mph SSW6.4 kmh SSW
Wind Gusts 21.3 mph34.3 kmh -- 7.0 mph11.3 kmh
Humidity 86% 64% 77%
Pressure 29.59 in1002.0 mb 29.21 in989.2 mb -
Precipitation 0.12 in3.0 mm - -
Hour Temp Dew Point Humidity Winds Wind Gusts Pressure Precip Precip Rate Daily Precip Total
12:00 AM 37.0°F2.8°C 30.8°F-0.7°C 78% 5.1 mph S8.2 kmh S 10.7 mph17.2 kmh 29.43 in996.6 mb 0.00 in0.0 mm 0.00 in0.0 mm 0.00 in0.0 mm
12:15 AM 37.4°F3.0°C 32.1°F0.1°C 81% 4.2 mph S6.8 kmh S 6.0 mph9.7 kmh 29.41 in995.9 mb 0.00 in0.0 mm 0.00 in0.0 mm 0.00 in0.0 mm
12:30 AM 37.6°F3.1°C 31.7°F-0.2°C 79% 7.8 mph S12.6 kmh S 13.0 mph20.9 kmh 29.41 in995.9 mb 0.00 in0.0 mm 0.00 in0.0 mm 0.00 in0.0 mm
01:00 AM 37.8°F3.2°C 31.2°F-0.4°C 77% 8.4 mph S13.5 kmh S 11.4 mph18.3 kmh 29.39 in995.3 mb 0.00 in0.0 mm 0.00 in0.0 mm 0.00 in0.0 mm
01:15 AM 37.6°F3.1°C 30.7°F-0.7°C 76% 8.1 mph S13.0 kmh S 13.0 mph20.9 kmh 29.38 in994.9 mb 0.00 in0.0 mm 0.00 in0.0 mm 0.00 in0.0 mm
01:30 AM 37.6°F3.1°C 30.4°F-0.9°C 75% 8.2 mph SSE13.2 kmh SSE 11.4 mph18.3 kmh 29.36 in994.2 mb 0.00 in0.0 mm 0.00 in0.0 mm 0.00 in0.0 mm
01:45 AM 37.6°F3.1°C 30.4°F-0.9°C 75% 10.7 mph S17.2 kmh S 15.2 mph24.5 kmh 29.36 in994.2 mb 0.00 in0.0 mm 0.00 in0.0 mm 0.00 in0.0 mm
02:00 AM 37.4°F3.0°C 30.2°F-1.0°C 75% 11.8 mph S19.0 kmh S 15.2 mph24.5 kmh 29.34 in993.6 mb 0.00 in0.0 mm 0.00 in0.0 mm 0.00 in0.0 mm
02:15 AM 37.4°F3.0°C 30.2°F-1.0°C 75% 11.4 mph S18.3 kmh S 21.3 mph34.3 kmh 29.34 in993.6 mb 0.00 in0.0 mm 0.00 in0.0 mm 0.00 in0.0 mm
02:45 AM 36.7°F2.6°C 29.2°F-1.6°C 74% 8.3 mph S13.4 kmh S 13.6 mph21.9 kmh 29.33 in993.2 mb 0.00 in0.0 mm 0.00 in0.0 mm 0.00 in0.0 mm
03:00 AM 37.0°F2.8°C 29.2°F-1.6°C 73% 8.0 mph S12.9 kmh S 11.4 mph18.3 kmh 29.33 in993.2 mb 0.00 in0.0 mm 0.00 in0.0 mm 0.00 in0.0 mm
03:15 AM 37.8°F3.2°C 30.6°F-0.8°C 75% 9.6 mph S15.4 kmh S 15.9 mph25.6 kmh 29.32 in992.9 mb 0.00 in0.0 mm 0.00 in0.0 mm 0.00 in0.0 mm
03:30 AM 37.6°F3.1°C 30.1°F-1.1°C 74% 9.4 mph SSE15.1 kmh SSE 19.0 mph30.6 kmh 29.31 in992.6 mb 0.01 in0.3 mm 0.04 in1.0 mm 0.01 in0.3 mm
03:45 AM 37.8°F3.2°C 30.6°F-0.8°C 75% 9.1 mph S14.6 kmh S 15.9 mph25.6 kmh 29.30 in992.2 mb 0.01 in0.3 mm 0.00 in0.0 mm 0.01 in0.3 mm
04:00 AM 37.2°F2.9°C 29.0°F-1.7°C 72% 9.3 mph S15.0 kmh S 12.1 mph19.5 kmh 29.30 in992.2 mb 0.01 in0.3 mm 0.00 in0.0 mm 0.01 in0.3 mm
04:15 AM 37.0°F2.8°C 29.2°F-1.6°C 73% 6.8 mph SSE10.9 kmh SSE 13.6 mph21.9 kmh 29.29 in991.9 mb 0.01 in0.3 mm 0.00 in0.0 mm 0.01 in0.3 mm
04:30 AM 37.0°F2.8°C 29.2°F-1.6°C 73% 7.6 mph SSE12.2 kmh SSE 13.0 mph20.9 kmh 29.28 in991.5 mb 0.00 in0.0 mm 0.00 in0.0 mm 0.01 in0.3 mm
04:45 AM 36.7°F2.6°C 29.2°F-1.6°C 74% 7.4 mph S11.9 kmh S 19.0 mph30.6 kmh 29.27 in991.2 mb 0.00 in0.0 mm 0.00 in0.0 mm 0.01 in0.3 mm
05:00 AM 36.5°F2.5°C 29.3°F-1.5°C 75% 8.1 mph S13.0 kmh S 13.0 mph20.9 kmh 29.26 in990.9 mb 0.00 in0.0 mm 0.00 in0.0 mm 0.01 in0.3 mm
05:15 AM 36.7°F2.6°C 29.8°F-1.2°C 76% 8.1 mph S13.0 kmh S 15.2 mph24.5 kmh 29.26 in990.9 mb 0.00 in0.0 mm 0.00 in0.0 mm 0.01 in0.3 mm
05:30 AM 36.7°F2.6°C 30.5°F-0.8°C 78% 6.4 mph WSW10.3 kmh WSW 9.8 mph15.8 kmh 29.25 in990.5 mb 0.00 in0.0 mm 0.00 in0.0 mm 0.01 in0.3 mm
05:45 AM 36.7°F2.6°C 30.5°F-0.8°C 78% 8.7 mph SE14.0 kmh SE 13.6 mph21.9 kmh 29.24 in990.2 mb 0.00 in0.0 mm 0.00 in0.0 mm 0.01 in0.3 mm
06:00 AM 36.5°F2.5°C 30.3°F-0.9°C 78% 8.0 mph SW12.9 kmh SW 18.3 mph29.5 kmh 29.23 in989.8 mb 0.00 in0.0 mm 0.00 in0.0 mm 0.01 in0.3 mm
06:15 AM 36.5°F2.5°C 30.3°F-0.9°C 78% 8.1 mph SSW13.0 kmh SSW 14.5 mph23.3 kmh 29.23 in989.8 mb 0.00 in0.0 mm 0.00 in0.0 mm 0.01 in0.3 mm
06:30 AM 36.3°F2.4°C 30.1°F-1.1°C 78% 7.9 mph S12.7 kmh S 11.4 mph18.3 kmh 29.21 in989.2 mb 0.00 in0.0 mm 0.00 in0.0 mm 0.01 in0.3 mm
06:45 AM 36.0°F2.2°C 30.1°F-1.1°C 79% 6.3 mph N10.1 kmh N 13.0 mph20.9 kmh 29.22 in989.5 mb 0.00 in0.0 mm 0.00 in0.0 mm 0.01 in0.3 mm
07:00 AM 36.1°F2.3°C 30.3°F-0.9°C 79% 7.5 mph W12.1 kmh W 14.5 mph23.3 kmh 29.22 in989.5 mb 0.00 in0.0 mm 0.00 in0.0 mm 0.01 in0.3 mm
07:30 AM 36.3°F2.4°C 30.4°F-0.9°C 79% 7.5 mph SSE12.1 kmh SSE 15.9 mph25.6 kmh 29.23 in989.8 mb 0.00 in0.0 mm 0.00 in0.0 mm 0.01 in0.3 mm
07:45 AM 36.1°F2.3°C 30.3°F-0.9°C 79% 6.2 mph SE10.0 kmh SE 11.4 mph18.3 kmh 29.22 in989.5 mb 0.01 in0.3 mm 0.04 in1.0 mm 0.02 in0.5 mm
08:00 AM 36.0°F2.2°C 30.4°F-0.9°C 80% 10.2 mph S16.4 kmh S 16.8 mph27.0 kmh 29.23 in989.8 mb 0.01 in0.3 mm 0.00 in0.0 mm 0.02 in0.5 mm
08:30 AM 35.8°F2.1°C 30.8°F-0.7°C 82% 4.7 mph NE7.6 kmh NE 9.2 mph14.8 kmh 29.25 in990.5 mb 0.02 in0.5 mm 0.02 in0.5 mm 0.04 in1.0 mm
08:45 AM 35.6°F2.0°C 31.0°F-0.6°C 83% 4.6 mph W7.4 kmh W 9.2 mph14.8 kmh 29.26 in990.9 mb 0.01 in0.3 mm 0.00 in0.0 mm 0.04 in1.0 mm
09:00 AM 34.7°F1.5°C 30.4°F-0.9°C 84% 5.5 mph SSE8.9 kmh SSE 12.1 mph19.5 kmh 29.28 in991.5 mb 0.02 in0.5 mm 0.01 in0.3 mm 0.05 in1.3 mm
09:15 AM 34.3°F1.3°C 30.0°F-1.1°C 84% 3.7 mph E6.0 kmh E 6.0 mph9.7 kmh 29.29 in991.9 mb 0.02 in0.5 mm 0.00 in0.0 mm 0.05 in1.3 mm
09:45 AM 34.9°F1.6°C 30.8°F-0.7°C 85% 2.8 mph WNW4.5 kmh WNW 4.5 mph7.2 kmh 29.30 in992.2 mb 0.01 in0.3 mm 0.00 in0.0 mm 0.05 in1.3 mm
10:00 AM 34.9°F1.6°C 30.8°F-0.7°C 85% 2.3 mph ENE3.7 kmh ENE 4.5 mph7.2 kmh 29.31 in992.6 mb 0.01 in0.3 mm 0.00 in0.0 mm 0.06 in1.5 mm
10:15 AM 35.2°F1.8°C 31.5°F-0.3°C 86% 3.7 mph SSE6.0 kmh SSE 8.3 mph13.4 kmh 29.32 in992.9 mb 0.04 in1.0 mm 0.12 in3.0 mm 0.08 in2.0 mm
10:30 AM 35.6°F2.0°C 31.3°F-0.4°C 84% 3.0 mph NNW4.8 kmh NNW 6.0 mph9.7 kmh 29.32 in992.9 mb 0.05 in1.3 mm 0.04 in1.0 mm 0.09 in2.3 mm
10:45 AM 36.1°F2.3°C 31.2°F-0.4°C 82% 1.9 mph SW3.1 kmh SW 3.8 mph6.1 kmh 29.33 in993.2 mb 0.06 in1.5 mm 0.04 in1.0 mm 0.11 in2.8 mm
11:00 AM 36.3°F2.4°C 30.4°F-0.9°C 79% 2.4 mph WSW3.9 kmh WSW 3.1 mph5.0 kmh 29.34 in993.6 mb 0.05 in1.3 mm 0.00 in0.0 mm 0.11 in2.8 mm
11:15 AM 36.5°F2.5°C 30.6°F-0.8°C 79% 1.9 mph SSW3.1 kmh SSW 4.5 mph7.2 kmh 29.35 in993.9 mb 0.04 in1.0 mm 0.00 in0.0 mm 0.12 in3.0 mm
11:45 AM 36.7°F2.6°C 30.8°F-0.7°C 79% 2.6 mph NNE4.2 kmh NNE 4.5 mph7.2 kmh 29.38 in994.9 mb 0.01 in0.3 mm 0.00 in0.0 mm 0.12 in3.0 mm
12:00 PM 36.7°F2.6°C 30.8°F-0.7°C 79% 2.4 mph N3.9 kmh N 3.1 mph5.0 kmh 29.38 in994.9 mb 0.01 in0.3 mm 0.00 in0.0 mm 0.12 in3.0 mm
12:15 PM 37.2°F2.9°C 31.3°F-0.4°C 79% 2.6 mph S4.2 kmh S 3.8 mph6.1 kmh 29.38 in994.9 mb 0.00 in0.0 mm 0.00 in0.0 mm 0.12 in3.0 mm
12:30 PM 37.8°F3.2°C 31.2°F-0.4°C 77% 2.9 mph SSW4.7 kmh SSW 6.0 mph9.7 kmh 29.39 in995.3 mb 0.00 in0.0 mm 0.00 in0.0 mm 0.12 in3.0 mm
12:45 PM 38.5°F3.6°C 31.3°F-0.4°C 75% 3.0 mph SSW4.8 kmh SSW 5.4 mph8.7 kmh 29.40 in995.6 mb 0.00 in0.0 mm 0.00 in0.0 mm 0.12 in3.0 mm
01:00 PM 39.6°F4.2°C 31.6°F-0.2°C 73% 2.1 mph ENE3.4 kmh ENE 4.5 mph7.2 kmh 29.41 in995.9 mb 0.00 in0.0 mm 0.00 in0.0 mm 0.12 in3.0 mm
01:15 PM 39.7°F4.3°C 31.5°F-0.3°C 72% 2.4 mph WSW3.9 kmh WSW 4.5 mph7.2 kmh 29.41 in995.9 mb 0.00 in0.0 mm 0.00 in0.0 mm 0.12 in3.0 mm
01:30 PM 39.7°F4.3°C 31.1°F-0.5°C 71% 2.8 mph S4.5 kmh S 3.8 mph6.1 kmh 29.42 in996.3 mb 0.00 in0.0 mm 0.00 in0.0 mm 0.12 in3.0 mm
01:45 PM 39.9°F4.4°C 30.9°F-0.6°C 70% 2.6 mph S4.2 kmh S 3.1 mph5.0 kmh 29.43 in996.6 mb 0.00 in0.0 mm 0.00 in0.0 mm 0.12 in3.0 mm
02:00 PM 39.9°F4.4°C 29.1°F-1.6°C 65% 4.0 mph NW6.4 kmh NW 11.4 mph18.3 kmh 29.44 in997.0 mb 0.00 in0.0 mm 0.00 in0.0 mm 0.12 in3.0 mm
02:15 PM 39.6°F4.2°C 28.8°F-1.8°C 65% 3.8 mph SSW6.1 kmh SSW 7.6 mph12.2 kmh 29.45 in997.3 mb 0.00 in0.0 mm 0.00 in0.0 mm 0.12 in3.0 mm
02:30 PM 39.7°F4.3°C 28.6°F-1.9°C 64% 2.6 mph SW4.2 kmh SW 3.8 mph6.1 kmh 29.45 in997.3 mb 0.00 in0.0 mm 0.00 in0.0 mm 0.12 in3.0 mm
02:45 PM 39.6°F4.2°C 28.4°F-2.0°C 64% 2.1 mph SSE3.4 kmh SSE 4.5 mph7.2 kmh 29.46 in997.6 mb 0.00 in0.0 mm 0.00 in0.0 mm 0.12 in3.0 mm
03:00 PM 38.7°F3.7°C 28.7°F-1.8°C 67% 1.6 mph S2.6 kmh S 3.8 mph6.1 kmh 29.46 in997.6 mb 0.00 in0.0 mm 0.00 in0.0 mm 0.12 in3.0 mm
03:15 PM 38.5°F3.6°C 28.1°F-2.2°C 66% 1.4 mph SSW2.3 kmh SSW 2.2 mph3.5 kmh 29.46 in997.6 mb 0.00 in0.0 mm 0.00 in0.0 mm 0.12 in3.0 mm
03:30 PM 37.6°F3.1°C 28.0°F-2.2°C 68% 1.1 mph SSE1.8 kmh SSE 2.2 mph3.5 kmh 29.47 in998.0 mb 0.00 in0.0 mm 0.00 in0.0 mm 0.12 in3.0 mm
03:45 PM 37.4°F3.0°C 28.5°F-1.9°C 70% 1.5 mph WNW2.4 kmh WNW 3.8 mph6.1 kmh 29.49 in998.6 mb 0.00 in0.0 mm 0.00 in0.0 mm 0.12 in3.0 mm
04:00 PM 36.9°F2.7°C 27.3°F-2.6°C 68% 1.6 mph W2.6 kmh W 2.2 mph3.5 kmh 29.49 in998.6 mb 0.00 in0.0 mm 0.00 in0.0 mm 0.12 in3.0 mm
04:15 PM 36.3°F2.4°C 26.8°F-2.9°C 68% 1.4 mph NNE2.3 kmh NNE 2.2 mph3.5 kmh 29.50 in999.0 mb 0.00 in0.0 mm 0.00 in0.0 mm 0.12 in3.0 mm
04:30 PM 36.0°F2.2°C 25.7°F-3.5°C 66% 1.5 mph SW2.4 kmh SW 3.1 mph5.0 kmh 29.51 in999.3 mb 0.00 in0.0 mm 0.00 in0.0 mm 0.12 in3.0 mm
04:45 PM 35.8°F2.1°C 25.9°F-3.4°C 67% 1.4 mph WSW2.3 kmh WSW 3.8 mph6.1 kmh 29.52 in999.7 mb 0.00 in0.0 mm 0.00 in0.0 mm 0.12 in3.0 mm
05:00 PM 34.5°F1.4°C 25.4°F-3.7°C 69% 0.7 mph W1.1 kmh W 1.6 mph2.6 kmh 29.53 in1000.0 mb 0.00 in0.0 mm 0.00 in0.0 mm 0.12 in3.0 mm
05:30 PM 32.7°F0.4°C 24.4°F-4.2°C 71% Calm Calm -- 29.54 in1000.3 mb 0.00 in0.0 mm 0.00 in0.0 mm 0.12 in3.0 mm
05:45 PM 32.5°F0.3°C 25.2°F-3.8°C 74% 0.8 mph SW1.3 kmh SW 1.6 mph2.6 kmh 29.55 in1000.7 mb 0.00 in0.0 mm 0.00 in0.0 mm 0.12 in3.0 mm
06:00 PM 32.0°F0.0°C 25.0°F-3.9°C 75% 0.6 mph WNW1.0 kmh WNW 1.6 mph2.6 kmh 29.55 in1000.7 mb 0.00 in0.0 mm 0.00 in0.0 mm 0.12 in3.0 mm
06:15 PM 32.2°F0.1°C 25.8°F-3.4°C 77% 0.8 mph NW1.3 kmh NW 1.6 mph2.6 kmh 29.55 in1000.7 mb 0.00 in0.0 mm 0.00 in0.0 mm 0.12 in3.0 mm
06:30 PM 32.7°F0.4°C 26.9°F-2.8°C 79% 1.7 mph WSW2.7 kmh WSW 2.2 mph3.5 kmh 29.56 in1001.0 mb 0.00 in0.0 mm 0.00 in0.0 mm 0.12 in3.0 mm
06:45 PM 32.9°F0.5°C 27.4°F-2.6°C 80% 2.0 mph NW3.2 kmh NW 3.8 mph6.1 kmh 29.56 in1001.0 mb 0.00 in0.0 mm 0.00 in0.0 mm 0.12 in3.0 mm
07:00 PM 32.7°F0.4°C 26.9°F-2.8°C 79% 1.4 mph SW2.3 kmh SW 3.1 mph5.0 kmh 29.58 in1001.7 mb 0.00 in0.0 mm 0.00 in0.0 mm 0.12 in3.0 mm
07:15 PM 32.2°F0.1°C 26.1°F-3.3°C 78% 1.1 mph SW1.8 kmh SW 3.1 mph5.0 kmh 29.58 in1001.7 mb 0.00 in0.0 mm 0.00 in0.0 mm 0.12 in3.0 mm
07:30 PM 31.3°F-0.4°C 25.5°F-3.6°C 79% 0.5 mph WSW0.8 kmh WSW 0.7 mph1.1 kmh 29.58 in1001.7 mb 0.00 in0.0 mm 0.00 in0.0 mm 0.12 in3.0 mm
08:00 PM 29.1°F-1.6°C 24.0°F-4.4°C 81% 0.3 mph S0.5 kmh S 1.6 mph2.6 kmh 29.59 in1002.0 mb 0.00 in0.0 mm 0.00 in0.0 mm 0.12 in3.0 mm
08:15 PM 28.8°F-1.8°C 24.0°F-4.4°C 82% Calm Calm -- 29.58 in1001.7 mb 0.00 in0.0 mm 0.00 in0.0 mm 0.12 in3.0 mm
08:30 PM 28.2°F-2.1°C 22.3°F-5.4°C 78% Calm Calm -- 29.58 in1001.7 mb 0.00 in0.0 mm 0.00 in0.0 mm 0.12 in3.0 mm
08:45 PM 28.6°F-1.9°C 24.1°F-4.4°C 83% 0.8 mph W1.3 kmh W 2.2 mph3.5 kmh 29.58 in1001.7 mb 0.00 in0.0 mm 0.00 in0.0 mm 0.12 in3.0 mm
09:00 PM 28.9°F-1.7°C 24.4°F-4.2°C 83% 0.8 mph SSW1.3 kmh SSW 1.6 mph2.6 kmh 29.58 in1001.7 mb 0.00 in0.0 mm 0.00 in0.0 mm 0.12 in3.0 mm
09:15 PM 28.9°F-1.7°C 24.7°F-4.1°C 84% 1.0 mph WSW1.6 kmh WSW 1.6 mph2.6 kmh 29.58 in1001.7 mb 0.00 in0.0 mm 0.00 in0.0 mm 0.12 in3.0 mm
09:30 PM 29.7°F-1.3°C 25.7°F-3.5°C 85% 1.9 mph WNW3.1 kmh WNW 3.8 mph6.1 kmh 29.59 in1002.0 mb 0.00 in0.0 mm 0.00 in0.0 mm 0.12 in3.0 mm
09:45 PM 29.7°F-1.3°C 25.7°F-3.5°C 85% 1.6 mph WSW2.6 kmh WSW 3.1 mph5.0 kmh 29.58 in1001.7 mb 0.00 in0.0 mm 0.00 in0.0 mm 0.12 in3.0 mm
10:00 PM 29.7°F-1.3°C 25.7°F-3.5°C 85% 2.4 mph NW3.9 kmh NW 4.5 mph7.2 kmh 29.58 in1001.7 mb 0.00 in0.0 mm 0.00 in0.0 mm 0.12 in3.0 mm
10:15 PM 30.6°F-0.8°C 26.3°F-3.2°C 84% 2.2 mph W3.5 kmh W 4.5 mph7.2 kmh 29.58 in1001.7 mb 0.00 in0.0 mm 0.00 in0.0 mm 0.12 in3.0 mm
10:30 PM 30.6°F-0.8°C 26.0°F-3.3°C 83% 0.8 mph NNW1.3 kmh NNW 3.1 mph5.0 kmh 29.57 in1001.4 mb 0.00 in0.0 mm 0.00 in0.0 mm 0.12 in3.0 mm
10:45 PM 30.6°F-0.8°C 26.0°F-3.3°C 83% 2.7 mph SW4.3 kmh SW 4.5 mph7.2 kmh 29.57 in1001.4 mb 0.00 in0.0 mm 0.00 in0.0 mm 0.12 in3.0 mm
11:00 PM 30.6°F-0.8°C 26.0°F-3.3°C 83% 1.2 mph SSW1.9 kmh SSW 3.1 mph5.0 kmh 29.58 in1001.7 mb 0.00 in0.0 mm 0.00 in0.0 mm 0.12 in3.0 mm
11:15 PM 30.6°F-0.8°C 25.7°F-3.5°C 82% 2.0 mph WNW3.2 kmh WNW 3.8 mph6.1 kmh 29.58 in1001.7 mb 0.00 in0.0 mm 0.00 in0.0 mm 0.12 in3.0 mm
11:30 PM 31.3°F-0.4°C 26.4°F-3.1°C 82% 3.3 mph W5.3 kmh W 7.6 mph12.2 kmh 29.59 in1002.0 mb 0.00 in0.0 mm 0.00 in0.0 mm 0.12 in3.0 mm
11:45 PM 30.7°F-0.7°C 25.6°F-3.6°C 81% 1.8 mph SW2.9 kmh SW 3.8 mph6.1 kmh 29.59 in1002.0 mb 0.00 in0.0 mm 0.00 in0.0 mm 0.12 in3.0 mm